sensor_id;sensor_type;location;lat;lon;timestamp;P1;durP1;ratioP1;P2;durP2;ratioP2
18174;SDS011;9212;50.894;16.714;2023-06-26T00:01:40;9.93;;;5.93;;
18174;SDS011;9212;50.894;16.714;2023-06-26T00:04:07;9.30;;;5.60;;
18174;SDS011;9212;50.894;16.714;2023-06-26T00:06:40;8.83;;;5.17;;
18174;SDS011;9212;50.894;16.714;2023-06-26T00:09:08;12.77;;;5.90;;
18174;SDS011;9212;50.894;16.714;2023-06-26T00:11:34;8.17;;;5.40;;
18174;SDS011;9212;50.894;16.714;2023-06-26T00:14:02;6.23;;;5.23;;
18174;SDS011;9212;50.894;16.714;2023-06-26T00:16:29;9.40;;;5.50;;
18174;SDS011;9212;50.894;16.714;2023-06-26T00:18:56;7.67;;;5.03;;
18174;SDS011;9212;50.894;16.714;2023-06-26T00:21:24;9.67;;;5.47;;
18174;SDS011;9212;50.894;16.714;2023-06-26T00:23:54;11.03;;;5.70;;
18174;SDS011;9212;50.894;16.714;2023-06-26T00:26:21;12.77;;;5.93;;
18174;SDS011;9212;50.894;16.714;2023-06-26T00:28:49;11.27;;;5.73;;
18174;SDS011;9212;50.894;16.714;2023-06-26T00:31:16;10.40;;;5.37;;
18174;SDS011;9212;50.894;16.714;2023-06-26T00:33:43;10.57;;;5.83;;
18174;SDS011;9212;50.894;16.714;2023-06-26T00:36:11;7.67;;;5.57;;
18174;SDS011;9212;50.894;16.714;2023-06-26T00:38:38;7.77;;;5.47;;
18174;SDS011;9212;50.894;16.714;2023-06-26T00:41:06;7.10;;;5.30;;
18174;SDS011;9212;50.894;16.714;2023-06-26T00:43:37;9.93;;;5.83;;
18174;SDS011;9212;50.894;16.714;2023-06-26T00:46:05;10.70;;;5.70;;
18174;SDS011;9212;50.894;16.714;2023-06-26T00:48:36;7.43;;;5.60;;
18174;SDS011;9212;50.894;16.714;2023-06-26T00:51:04;7.63;;;4.93;;
18174;SDS011;9212;50.894;16.714;2023-06-26T00:53:31;8.60;;;5.30;;
18174;SDS011;9212;50.894;16.714;2023-06-26T00:55:58;7.53;;;5.17;;
18174;SDS011;9212;50.894;16.714;2023-06-26T00:58:27;8.67;;;5.50;;
18174;SDS011;9212;50.894;16.714;2023-06-26T01:00:54;7.50;;;5.17;;
18174;SDS011;9212;50.894;16.714;2023-06-26T01:03:22;9.97;;;5.50;;
18174;SDS011;9212;50.894;16.714;2023-06-26T01:05:50;8.00;;;5.10;;
18174;SDS011;9212;50.894;16.714;2023-06-26T01:08:18;12.47;;;5.60;;
18174;SDS011;9212;50.894;16.714;2023-06-26T01:10:46;11.43;;;5.10;;
18174;SDS011;9212;50.894;16.714;2023-06-26T01:13:14;12.60;;;5.03;;
18174;SDS011;9212;50.894;16.714;2023-06-26T01:15:43;8.77;;;5.40;;
18174;SDS011;9212;50.894;16.714;2023-06-26T01:18:11;7.23;;;5.50;;
18174;SDS011;9212;50.894;16.714;2023-06-26T01:20:40;8.73;;;5.37;;
18174;SDS011;9212;50.894;16.714;2023-06-26T01:23:12;8.57;;;5.27;;
18174;SDS011;9212;50.894;16.714;2023-06-26T01:25:48;9.00;;;5.63;;
18174;SDS011;9212;50.894;16.714;2023-06-26T01:28:24;11.60;;;5.43;;
18174;SDS011;9212;50.894;16.714;2023-06-26T01:30:52;7.43;;;5.17;;
18174;SDS011;9212;50.894;16.714;2023-06-26T01:33:21;9.30;;;5.20;;
18174;SDS011;9212;50.894;16.714;2023-06-26T01:35:48;14.10;;;5.90;;
18174;SDS011;9212;50.894;16.714;2023-06-26T01:38:16;8.63;;;5.20;;
18174;SDS011;9212;50.894;16.714;2023-06-26T01:40:44;6.93;;;4.97;;
18174;SDS011;9212;50.894;16.714;2023-06-26T01:43:15;8.43;;;5.60;;
18174;SDS011;9212;50.894;16.714;2023-06-26T01:45:50;11.00;;;5.47;;
18174;SDS011;9212;50.894;16.714;2023-06-26T01:48:20;15.57;;;6.30;;
18174;SDS011;9212;50.894;16.714;2023-06-26T01:50:52;10.43;;;5.10;;
18174;SDS011;9212;50.894;16.714;2023-06-26T01:53:21;9.47;;;6.00;;
18174;SDS011;9212;50.894;16.714;2023-06-26T01:55:53;10.90;;;5.83;;
18174;SDS011;9212;50.894;16.714;2023-06-26T01:58:22;10.33;;;5.80;;
18174;SDS011;9212;50.894;16.714;2023-06-26T02:00:52;7.70;;;5.37;;
18174;SDS011;9212;50.894;16.714;2023-06-26T02:03:20;10.33;;;5.77;;
18174;SDS011;9212;50.894;16.714;2023-06-26T02:05:49;8.97;;;5.90;;
18174;SDS011;9212;50.894;16.714;2023-06-26T02:08:16;13.60;;;5.00;;
18174;SDS011;9212;50.894;16.714;2023-06-26T02:10:43;10.57;;;5.80;;
18174;SDS011;9212;50.894;16.714;2023-06-26T02:13:11;8.80;;;5.27;;
18174;SDS011;9212;50.894;16.714;2023-06-26T02:15:38;9.40;;;5.77;;
18174;SDS011;9212;50.894;16.714;2023-06-26T02:18:07;10.57;;;5.50;;
18174;SDS011;9212;50.894;16.714;2023-06-26T02:20:34;9.20;;;5.30;;
18174;SDS011;9212;50.894;16.714;2023-06-26T02:23:01;7.43;;;5.20;;
18174;SDS011;9212;50.894;16.714;2023-06-26T02:25:29;9.67;;;5.73;;
18174;SDS011;9212;50.894;16.714;2023-06-26T02:27:55;8.33;;;5.17;;
18174;SDS011;9212;50.894;16.714;2023-06-26T02:30:22;12.43;;;5.60;;
18174;SDS011;9212;50.894;16.714;2023-06-26T02:32:49;11.37;;;4.90;;
18174;SDS011;9212;50.894;16.714;2023-06-26T02:35:18;8.73;;;5.10;;
18174;SDS011;9212;50.894;16.714;2023-06-26T02:37:45;9.07;;;5.70;;
18174;SDS011;9212;50.894;16.714;2023-06-26T02:40:12;8.60;;;5.50;;
18174;SDS011;9212;50.894;16.714;2023-06-26T02:42:39;6.83;;;5.17;;
18174;SDS011;9212;50.894;16.714;2023-06-26T02:45:07;8.73;;;5.47;;
18174;SDS011;9212;50.894;16.714;2023-06-26T02:47:35;13.70;;;5.37;;
18174;SDS011;9212;50.894;16.714;2023-06-26T02:50:05;13.97;;;5.27;;
18174;SDS011;9212;50.894;16.714;2023-06-26T02:52:33;8.43;;;5.30;;
18174;SDS011;9212;50.894;16.714;2023-06-26T02:55:00;9.83;;;5.63;;
18174;SDS011;9212;50.894;16.714;2023-06-26T02:57:27;8.03;;;5.37;;
18174;SDS011;9212;50.894;16.714;2023-06-26T02:59:54;8.60;;;5.87;;
18174;SDS011;9212;50.894;16.714;2023-06-26T03:02:21;9.73;;;5.40;;
18174;SDS011;9212;50.894;16.714;2023-06-26T03:04:48;8.07;;;5.13;;
18174;SDS011;9212;50.894;16.714;2023-06-26T03:07:15;6.10;;;4.90;;
18174;SDS011;9212;50.894;16.714;2023-06-26T03:09:44;7.57;;;5.10;;
18174;SDS011;9212;50.894;16.714;2023-06-26T03:12:10;7.27;;;4.67;;
18174;SDS011;9212;50.894;16.714;2023-06-26T03:14:37;7.03;;;5.07;;
18174;SDS011;9212;50.894;16.714;2023-06-26T03:17:04;8.67;;;5.40;;
18174;SDS011;9212;50.894;16.714;2023-06-26T03:19:32;7.83;;;5.03;;
18174;SDS011;9212;50.894;16.714;2023-06-26T03:21:59;9.60;;;5.70;;
18174;SDS011;9212;50.894;16.714;2023-06-26T03:24:27;9.77;;;5.40;;
18174;SDS011;9212;50.894;16.714;2023-06-26T03:26:55;7.57;;;4.83;;
18174;SDS011;9212;50.894;16.714;2023-06-26T03:29:22;7.40;;;5.77;;
18174;SDS011;9212;50.894;16.714;2023-06-26T03:31:50;12.13;;;5.63;;
18174;SDS011;9212;50.894;16.714;2023-06-26T03:34:17;9.40;;;4.97;;
18174;SDS011;9212;50.894;16.714;2023-06-26T03:36:45;8.13;;;5.27;;
18174;SDS011;9212;50.894;16.714;2023-06-26T03:39:12;12.67;;;5.43;;
18174;SDS011;9212;50.894;16.714;2023-06-26T03:41:39;10.00;;;5.63;;
18174;SDS011;9212;50.894;16.714;2023-06-26T03:44:07;7.27;;;5.33;;
18174;SDS011;9212;50.894;16.714;2023-06-26T03:46:34;8.43;;;5.30;;
18174;SDS011;9212;50.894;16.714;2023-06-26T03:49:01;7.77;;;5.10;;
18174;SDS011;9212;50.894;16.714;2023-06-26T03:51:29;7.87;;;5.37;;
18174;SDS011;9212;50.894;16.714;2023-06-26T03:53:56;11.70;;;5.50;;
18174;SDS011;9212;50.894;16.714;2023-06-26T03:56:23;7.87;;;4.97;;
18174;SDS011;9212;50.894;16.714;2023-06-26T03:58:50;7.63;;;5.03;;
18174;SDS011;9212;50.894;16.714;2023-06-26T04:01:18;7.53;;;5.30;;
18174;SDS011;9212;50.894;16.714;2023-06-26T04:03:46;5.57;;;4.53;;
18174;SDS011;9212;50.894;16.714;2023-06-26T04:06:13;9.73;;;4.47;;
18174;SDS011;9212;50.894;16.714;2023-06-26T04:08:41;7.00;;;4.83;;
18174;SDS011;9212;50.894;16.714;2023-06-26T04:11:08;6.67;;;4.90;;
18174;SDS011;9212;50.894;16.714;2023-06-26T04:13:35;8.23;;;5.23;;
18174;SDS011;9212;50.894;16.714;2023-06-26T04:16:03;9.30;;;5.87;;
18174;SDS011;9212;50.894;16.714;2023-06-26T04:18:32;9.97;;;6.17;;
18174;SDS011;9212;50.894;16.714;2023-06-26T04:21:06;8.73;;;5.63;;
18174;SDS011;9212;50.894;16.714;2023-06-26T04:23:34;8.15;;;6.05;;
18174;SDS011;9212;50.894;16.714;2023-06-26T04:26:02;7.97;;;5.18;;
18174;SDS011;9212;50.894;16.714;2023-06-26T04:28:30;5.60;;;4.80;;
18174;SDS011;9212;50.894;16.714;2023-06-26T04:30:57;5.00;;;4.05;;
18174;SDS011;9212;50.894;16.714;2023-06-26T04:33:25;4.57;;;3.92;;
18174;SDS011;9212;50.894;16.714;2023-06-26T04:35:54;5.10;;;3.90;;
18174;SDS011;9212;50.894;16.714;2023-06-26T04:38:21;4.93;;;3.95;;
18174;SDS011;9212;50.894;16.714;2023-06-26T04:40:48;4.18;;;3.72;;
18174;SDS011;9212;50.894;16.714;2023-06-26T04:43:15;4.97;;;4.20;;
18174;SDS011;9212;50.894;16.714;2023-06-26T04:45:42;5.93;;;3.78;;
18174;SDS011;9212;50.894;16.714;2023-06-26T04:48:09;5.15;;;3.92;;
18174;SDS011;9212;50.894;16.714;2023-06-26T04:50:36;4.50;;;3.00;;
18174;SDS011;9212;50.894;16.714;2023-06-26T04:53:05;4.35;;;3.13;;
18174;SDS011;9212;50.894;16.714;2023-06-26T04:55:32;6.90;;;3.33;;
18174;SDS011;9212;50.894;16.714;2023-06-26T04:57:59;4.03;;;3.13;;
18174;SDS011;9212;50.894;16.714;2023-06-26T05:00:26;3.58;;;3.20;;
18174;SDS011;9212;50.894;16.714;2023-06-26T05:02:53;3.53;;;3.22;;
18174;SDS011;9212;50.894;16.714;2023-06-26T05:05:25;3.40;;;2.95;;
18174;SDS011;9212;50.894;16.714;2023-06-26T05:07:53;2.85;;;2.65;;
18174;SDS011;9212;50.894;16.714;2023-06-26T05:10:22;6.70;;;3.20;;
18174;SDS011;9212;50.894;16.714;2023-06-26T05:12:49;3.72;;;3.33;;
18174;SDS011;9212;50.894;16.714;2023-06-26T05:15:16;4.45;;;3.10;;
18174;SDS011;9212;50.894;16.714;2023-06-26T05:17:43;4.90;;;2.80;;
18174;SDS011;9212;50.894;16.714;2023-06-26T05:20:10;5.28;;;3.33;;
18174;SDS011;9212;50.894;16.714;2023-06-26T05:22:38;5.50;;;3.75;;
18174;SDS011;9212;50.894;16.714;2023-06-26T05:25:06;6.93;;;3.08;;
18174;SDS011;9212;50.894;16.714;2023-06-26T05:27:38;8.50;;;3.75;;
18174;SDS011;9212;50.894;16.714;2023-06-26T05:30:05;5.72;;;3.35;;
18174;SDS011;9212;50.894;16.714;2023-06-26T05:32:33;3.83;;;3.42;;
18174;SDS011;9212;50.894;16.714;2023-06-26T05:35:02;6.10;;;3.22;;
18174;SDS011;9212;50.894;16.714;2023-06-26T05:37:30;4.47;;;3.08;;
18174;SDS011;9212;50.894;16.714;2023-06-26T05:39:58;4.70;;;3.03;;
18174;SDS011;9212;50.894;16.714;2023-06-26T05:42:26;3.38;;;2.90;;
18174;SDS011;9212;50.894;16.714;2023-06-26T05:44:55;2.92;;;2.60;;
18174;SDS011;9212;50.894;16.714;2023-06-26T05:47:22;4.25;;;2.72;;
18174;SDS011;9212;50.894;16.714;2023-06-26T05:49:49;3.45;;;3.05;;
18174;SDS011;9212;50.894;16.714;2023-06-26T05:52:16;3.80;;;3.08;;
18174;SDS011;9212;50.894;16.714;2023-06-26T05:54:44;5.65;;;3.08;;
18174;SDS011;9212;50.894;16.714;2023-06-26T05:57:12;6.93;;;3.53;;
18174;SDS011;9212;50.894;16.714;2023-06-26T05:59:40;4.38;;;2.92;;
18174;SDS011;9212;50.894;16.714;2023-06-26T06:02:10;12.25;;;3.47;;
18174;SDS011;9212;50.894;16.714;2023-06-26T06:04:37;6.40;;;3.38;;
18174;SDS011;9212;50.894;16.714;2023-06-26T06:07:05;5.35;;;2.92;;
18174;SDS011;9212;50.894;16.714;2023-06-26T06:09:32;3.72;;;2.78;;
18174;SDS011;9212;50.894;16.714;2023-06-26T06:11:59;3.65;;;3.30;;
18174;SDS011;9212;50.894;16.714;2023-06-26T06:14:26;3.67;;;3.03;;
18174;SDS011;9212;50.894;16.714;2023-06-26T06:16:53;3.67;;;2.60;;
18174;SDS011;9212;50.894;16.714;2023-06-26T06:19:22;3.30;;;2.92;;
18174;SDS011;9212;50.894;16.714;2023-06-26T06:21:49;4.35;;;2.95;;
18174;SDS011;9212;50.894;16.714;2023-06-26T06:24:16;3.00;;;2.70;;
18174;SDS011;9212;50.894;16.714;2023-06-26T06:26:43;8.95;;;3.10;;
18174;SDS011;9212;50.894;16.714;2023-06-26T06:29:11;2.75;;;2.50;;
18174;SDS011;9212;50.894;16.714;2023-06-26T06:31:38;3.42;;;3.00;;
18174;SDS011;9212;50.894;16.714;2023-06-26T06:34:05;4.20;;;2.78;;
18174;SDS011;9212;50.894;16.714;2023-06-26T06:36:34;4.82;;;2.97;;
18174;SDS011;9212;50.894;16.714;2023-06-26T06:39:01;5.18;;;3.22;;
18174;SDS011;9212;50.894;16.714;2023-06-26T06:41:28;3.08;;;2.75;;
18174;SDS011;9212;50.894;16.714;2023-06-26T06:43:56;3.67;;;2.80;;
18174;SDS011;9212;50.894;16.714;2023-06-26T06:46:23;3.75;;;2.90;;
18174;SDS011;9212;50.894;16.714;2023-06-26T06:48:52;3.05;;;2.75;;
18174;SDS011;9212;50.894;16.714;2023-06-26T06:51:19;3.03;;;2.72;;
18174;SDS011;9212;50.894;16.714;2023-06-26T06:53:47;3.17;;;2.80;;
18174;SDS011;9212;50.894;16.714;2023-06-26T06:56:14;3.20;;;2.80;;
18174;SDS011;9212;50.894;16.714;2023-06-26T06:58:41;3.47;;;2.70;;
18174;SDS011;9212;50.894;16.714;2023-06-26T07:01:11;3.33;;;3.00;;
18174;SDS011;9212;50.894;16.714;2023-06-26T07:03:38;4.75;;;2.75;;
18174;SDS011;9212;50.894;16.714;2023-06-26T07:06:06;4.90;;;3.33;;
18174;SDS011;9212;50.894;16.714;2023-06-26T07:08:33;6.85;;;3.40;;
18174;SDS011;9212;50.894;16.714;2023-06-26T07:11:01;2.78;;;2.58;;
18174;SDS011;9212;50.894;16.714;2023-06-26T07:13:28;3.90;;;2.53;;
18174;SDS011;9212;50.894;16.714;2023-06-26T07:15:55;2.72;;;2.50;;
18174;SDS011;9212;50.894;16.714;2023-06-26T07:18:23;3.90;;;2.83;;
18174;SDS011;9212;50.894;16.714;2023-06-26T07:20:50;4.45;;;2.65;;
18174;SDS011;9212;50.894;16.714;2023-06-26T07:23:17;3.00;;;2.70;;
18174;SDS011;9212;50.894;16.714;2023-06-26T07:25:44;5.03;;;2.83;;
18174;SDS011;9212;50.894;16.714;2023-06-26T07:28:13;4.95;;;2.63;;
18174;SDS011;9212;50.894;16.714;2023-06-26T07:30:40;4.13;;;2.90;;
18174;SDS011;9212;50.894;16.714;2023-06-26T07:33:07;3.30;;;2.97;;
18174;SDS011;9212;50.894;16.714;2023-06-26T07:35:35;5.38;;;2.58;;
18174;SDS011;9212;50.894;16.714;2023-06-26T07:38:02;8.93;;;3.00;;
18174;SDS011;9212;50.894;16.714;2023-06-26T07:40:29;4.75;;;2.95;;
18174;SDS011;9212;50.894;16.714;2023-06-26T07:42:56;3.05;;;2.70;;
18174;SDS011;9212;50.894;16.714;2023-06-26T07:45:25;3.70;;;2.80;;
18174;SDS011;9212;50.894;16.714;2023-06-26T07:47:52;3.35;;;2.97;;
18174;SDS011;9212;50.894;16.714;2023-06-26T07:50:19;3.85;;;2.70;;
18174;SDS011;9212;50.894;16.714;2023-06-26T07:52:48;3.88;;;2.65;;
18174;SDS011;9212;50.894;16.714;2023-06-26T07:55:15;3.33;;;2.35;;
18174;SDS011;9212;50.894;16.714;2023-06-26T07:57:42;3.80;;;2.40;;
18174;SDS011;9212;50.894;16.714;2023-06-26T08:00:11;3.13;;;2.80;;
18174;SDS011;9212;50.894;16.714;2023-06-26T08:02:39;2.72;;;2.50;;
18174;SDS011;9212;50.894;16.714;2023-06-26T08:05:06;4.07;;;2.67;;
18174;SDS011;9212;50.894;16.714;2023-06-26T08:07:33;2.95;;;2.63;;
18174;SDS011;9212;50.894;16.714;2023-06-26T08:10:00;3.45;;;3.15;;
18174;SDS011;9212;50.894;16.714;2023-06-26T08:12:27;3.13;;;2.22;;
18174;SDS011;9212;50.894;16.714;2023-06-26T08:14:55;2.58;;;2.38;;
18174;SDS011;9212;50.894;16.714;2023-06-26T08:17:22;2.97;;;2.55;;
18174;SDS011;9212;50.894;16.714;2023-06-26T08:19:50;2.85;;;2.40;;
18174;SDS011;9212;50.894;16.714;2023-06-26T08:22:17;3.30;;;2.60;;
18174;SDS011;9212;50.894;16.714;2023-06-26T08:24:44;3.10;;;2.80;;
18174;SDS011;9212;50.894;16.714;2023-06-26T08:27:11;3.15;;;2.55;;
18174;SDS011;9212;50.894;16.714;2023-06-26T08:29:38;3.75;;;2.50;;
18174;SDS011;9212;50.894;16.714;2023-06-26T08:32:05;2.85;;;2.55;;
18174;SDS011;9212;50.894;16.714;2023-06-26T08:34:32;3.38;;;2.67;;
18174;SDS011;9212;50.894;16.714;2023-06-26T08:37:00;2.70;;;2.50;;
18174;SDS011;9212;50.894;16.714;2023-06-26T08:39:27;2.58;;;2.38;;
18174;SDS011;9212;50.894;16.714;2023-06-26T08:41:54;2.75;;;2.50;;
18174;SDS011;9212;50.894;16.714;2023-06-26T08:44:21;3.30;;;2.75;;
18174;SDS011;9212;50.894;16.714;2023-06-26T08:46:50;5.05;;;2.92;;
18174;SDS011;9212;50.894;16.714;2023-06-26T08:49:18;2.65;;;2.45;;
18174;SDS011;9212;50.894;16.714;2023-06-26T08:51:49;2.60;;;2.40;;
18174;SDS011;9212;50.894;16.714;2023-06-26T08:54:29;3.13;;;2.50;;
18174;SDS011;9212;50.894;16.714;2023-06-26T08:57:00;2.63;;;2.33;;
18174;SDS011;9212;50.894;16.714;2023-06-26T08:59:29;7.30;;;2.17;;
18174;SDS011;9212;50.894;16.714;2023-06-26T09:01:56;7.07;;;2.42;;
18174;SDS011;9212;50.894;16.714;2023-06-26T09:04:23;3.95;;;2.30;;
18174;SDS011;9212;50.894;16.714;2023-06-26T09:06:51;2.85;;;2.42;;
18174;SDS011;9212;50.894;16.714;2023-06-26T09:09:18;2.75;;;2.47;;
18174;SDS011;9212;50.894;16.714;2023-06-26T09:11:47;2.72;;;2.17;;
18174;SDS011;9212;50.894;16.714;2023-06-26T09:14:14;3.15;;;2.45;;
18174;SDS011;9212;50.894;16.714;2023-06-26T09:16:41;3.05;;;2.75;;
18174;SDS011;9212;50.894;16.714;2023-06-26T09:19:09;2.58;;;2.38;;
18174;SDS011;9212;50.894;16.714;2023-06-26T09:21:38;3.88;;;2.30;;
18174;SDS011;9212;50.894;16.714;2023-06-26T09:24:06;2.40;;;2.20;;
18174;SDS011;9212;50.894;16.714;2023-06-26T09:26:34;2.55;;;2.35;;
18174;SDS011;9212;50.894;16.714;2023-06-26T09:29:03;4.03;;;2.30;;
18174;SDS011;9212;50.894;16.714;2023-06-26T09:31:32;4.35;;;2.25;;
18174;SDS011;9212;50.894;16.714;2023-06-26T09:33:59;2.70;;;2.00;;
18174;SDS011;9212;50.894;16.714;2023-06-26T09:36:28;2.70;;;2.22;;
18174;SDS011;9212;50.894;16.714;2023-06-26T09:38:58;2.85;;;2.38;;
18174;SDS011;9212;50.894;16.714;2023-06-26T09:41:27;2.45;;;2.25;;
18174;SDS011;9212;50.894;16.714;2023-06-26T09:43:56;3.10;;;2.22;;
18174;SDS011;9212;50.894;16.714;2023-06-26T09:46:29;4.07;;;1.90;;
18174;SDS011;9212;50.894;16.714;2023-06-26T09:49:01;2.65;;;2.33;;
18174;SDS011;9212;50.894;16.714;2023-06-26T09:51:30;3.00;;;2.20;;
18174;SDS011;9212;50.894;16.714;2023-06-26T09:53:58;2.22;;;2.00;;
18174;SDS011;9212;50.894;16.714;2023-06-26T09:56:25;3.20;;;2.47;;
18174;SDS011;9212;50.894;16.714;2023-06-26T09:58:52;3.53;;;2.20;;
18174;SDS011;9212;50.894;16.714;2023-06-26T10:01:21;2.42;;;2.22;;
18174;SDS011;9212;50.894;16.714;2023-06-26T10:03:49;2.90;;;2.25;;
18174;SDS011;9212;50.894;16.714;2023-06-26T10:06:17;3.72;;;2.50;;
18174;SDS011;9212;50.894;16.714;2023-06-26T10:08:48;5.93;;;2.40;;
18174;SDS011;9212;50.894;16.714;2023-06-26T10:11:16;2.50;;;2.28;;
18174;SDS011;9212;50.894;16.714;2023-06-26T10:13:47;3.33;;;2.70;;
18174;SDS011;9212;50.894;16.714;2023-06-26T10:16:18;2.60;;;2.40;;
18174;SDS011;9212;50.894;16.714;2023-06-26T10:18:52;2.92;;;2.63;;
18174;SDS011;9212;50.894;16.714;2023-06-26T10:21:20;2.75;;;2.50;;
18174;SDS011;9212;50.894;16.714;2023-06-26T10:23:49;2.70;;;2.50;;
18174;SDS011;9212;50.894;16.714;2023-06-26T10:26:19;4.50;;;2.58;;
18174;SDS011;9212;50.894;16.714;2023-06-26T10:28:47;3.00;;;2.60;;
18174;SDS011;9212;50.894;16.714;2023-06-26T10:31:18;2.80;;;2.60;;
18174;SDS011;9212;50.894;16.714;2023-06-26T10:33:47;2.70;;;2.40;;
18174;SDS011;9212;50.894;16.714;2023-06-26T10:36:16;3.75;;;2.42;;
18174;SDS011;9212;50.894;16.714;2023-06-26T10:38:51;3.10;;;2.47;;
18174;SDS011;9212;50.894;16.714;2023-06-26T10:41:20;2.58;;;2.38;;
18174;SDS011;9212;50.894;16.714;2023-06-26T10:43:51;5.13;;;2.47;;
18174;SDS011;9212;50.894;16.714;2023-06-26T10:46:32;8.13;;;2.75;;
18174;SDS011;9212;50.894;16.714;2023-06-26T10:49:00;6.20;;;2.88;;
18174;SDS011;9212;50.894;16.714;2023-06-26T10:51:29;3.03;;;2.60;;
18174;SDS011;9212;50.894;16.714;2023-06-26T10:53:57;3.25;;;2.65;;
18174;SDS011;9212;50.894;16.714;2023-06-26T10:56:43;2.95;;;2.58;;
18174;SDS011;9212;50.894;16.714;2023-06-26T10:59:13;4.07;;;2.67;;
18174;SDS011;9212;50.894;16.714;2023-06-26T11:01:42;6.93;;;3.03;;
18174;SDS011;9212;50.894;16.714;2023-06-26T11:04:09;4.10;;;2.40;;
18174;SDS011;9212;50.894;16.714;2023-06-26T11:06:38;6.45;;;2.25;;
18174;SDS011;9212;50.894;16.714;2023-06-26T11:09:09;4.85;;;2.50;;
18174;SDS011;9212;50.894;16.714;2023-06-26T11:14:31;2.63;;;2.42;;
18174;SDS011;9212;50.894;16.714;2023-06-26T11:16:58;4.18;;;2.20;;
18174;SDS011;9212;50.894;16.714;2023-06-26T11:19:28;2.60;;;2.40;;
18174;SDS011;9212;50.894;16.714;2023-06-26T11:21:59;4.13;;;2.40;;
18174;SDS011;9212;50.894;16.714;2023-06-26T11:24:29;2.80;;;2.45;;
18174;SDS011;9212;50.894;16.714;2023-06-26T11:26:59;3.33;;;2.40;;
18174;SDS011;9212;50.894;16.714;2023-06-26T11:29:28;3.13;;;2.33;;
18174;SDS011;9212;50.894;16.714;2023-06-26T11:32:03;4.82;;;2.45;;
18174;SDS011;9212;50.894;16.714;2023-06-26T11:34:34;3.53;;;2.40;;
18174;SDS011;9212;50.894;16.714;2023-06-26T11:37:04;2.45;;;2.25;;
18174;SDS011;9212;50.894;16.714;2023-06-26T11:39:32;3.25;;;2.30;;
18174;SDS011;9212;50.894;16.714;2023-06-26T11:42:00;3.25;;;2.63;;
18174;SDS011;9212;50.894;16.714;2023-06-26T11:44:30;8.93;;;2.85;;
18174;SDS011;9212;50.894;16.714;2023-06-26T11:46:59;3.05;;;2.72;;
18174;SDS011;9212;50.894;16.714;2023-06-26T11:49:26;5.32;;;2.72;;
18174;SDS011;9212;50.894;16.714;2023-06-26T11:51:55;4.15;;;2.75;;
18174;SDS011;9212;50.894;16.714;2023-06-26T11:54:28;3.40;;;2.65;;
18174;SDS011;9212;50.894;16.714;2023-06-26T11:56:57;2.40;;;2.20;;
18174;SDS011;9212;50.894;16.714;2023-06-26T11:59:32;3.10;;;2.50;;
18174;SDS011;9212;50.894;16.714;2023-06-26T12:02:04;3.17;;;2.50;;
18174;SDS011;9212;50.894;16.714;2023-06-26T12:04:32;3.88;;;2.63;;
18174;SDS011;9212;50.894;16.714;2023-06-26T12:07:00;2.75;;;2.50;;
18174;SDS011;9212;50.894;16.714;2023-06-26T12:09:30;4.50;;;2.50;;
18174;SDS011;9212;50.894;16.714;2023-06-26T12:11:59;3.78;;;2.20;;
18174;SDS011;9212;50.894;16.714;2023-06-26T12:14:27;2.60;;;2.40;;
18174;SDS011;9212;50.894;16.714;2023-06-26T12:16:54;2.45;;;2.25;;
18174;SDS011;9212;50.894;16.714;2023-06-26T12:19:24;2.92;;;2.40;;
18174;SDS011;9212;50.894;16.714;2023-06-26T12:21:52;2.95;;;2.70;;
18174;SDS011;9212;50.894;16.714;2023-06-26T12:24:21;3.45;;;2.63;;
18174;SDS011;9212;50.894;16.714;2023-06-26T12:26:51;3.13;;;2.72;;
18174;SDS011;9212;50.894;16.714;2023-06-26T12:29:21;2.72;;;2.50;;
18174;SDS011;9212;50.894;16.714;2023-06-26T12:31:52;3.50;;;2.15;;
18174;SDS011;9212;50.894;16.714;2023-06-26T12:34:20;2.50;;;2.25;;
18174;SDS011;9212;50.894;16.714;2023-06-26T12:36:53;3.65;;;2.63;;
18174;SDS011;9212;50.894;16.714;2023-06-26T12:39:25;5.05;;;2.55;;
18174;SDS011;9212;50.894;16.714;2023-06-26T12:41:55;5.05;;;2.70;;
18174;SDS011;9212;50.894;16.714;2023-06-26T12:44:25;4.72;;;3.00;;
18174;SDS011;9212;50.894;16.714;2023-06-26T12:46:54;3.42;;;2.50;;
18174;SDS011;9212;50.894;16.714;2023-06-26T12:49:28;3.20;;;2.83;;
18174;SDS011;9212;50.894;16.714;2023-06-26T12:51:58;2.95;;;2.63;;
18174;SDS011;9212;50.894;16.714;2023-06-26T12:54:26;4.10;;;2.72;;
18174;SDS011;9212;50.894;16.714;2023-06-26T12:56:54;2.47;;;2.20;;
18174;SDS011;9212;50.894;16.714;2023-06-26T12:59:21;3.42;;;2.88;;
18174;SDS011;9212;50.894;16.714;2023-06-26T13:01:49;2.58;;;2.38;;
18174;SDS011;9212;50.894;16.714;2023-06-26T13:04:16;4.00;;;2.42;;
18174;SDS011;9212;50.894;16.714;2023-06-26T13:06:43;4.05;;;2.63;;
18174;SDS011;9212;50.894;16.714;2023-06-26T13:09:10;3.22;;;2.17;;
18174;SDS011;9212;50.894;16.714;2023-06-26T13:11:37;3.25;;;2.70;;
18174;SDS011;9212;50.894;16.714;2023-06-26T13:14:06;3.08;;;2.33;;
18174;SDS011;9212;50.894;16.714;2023-06-26T13:16:33;3.95;;;2.45;;
18174;SDS011;9212;50.894;16.714;2023-06-26T13:19:00;3.03;;;2.50;;
18174;SDS011;9212;50.894;16.714;2023-06-26T13:21:28;2.72;;;2.53;;
18174;SDS011;9212;50.894;16.714;2023-06-26T13:23:55;2.72;;;2.53;;
18174;SDS011;9212;50.894;16.714;2023-06-26T13:26:24;2.60;;;2.40;;
18174;SDS011;9212;50.894;16.714;2023-06-26T13:28:53;3.30;;;2.67;;
18174;SDS011;9212;50.894;16.714;2023-06-26T13:31:22;2.53;;;2.33;;
18174;SDS011;9212;50.894;16.714;2023-06-26T13:33:49;2.35;;;2.15;;
18174;SDS011;9212;50.894;16.714;2023-06-26T13:36:17;2.85;;;2.50;;
18174;SDS011;9212;50.894;16.714;2023-06-26T13:38:44;2.53;;;2.25;;
18174;SDS011;9212;50.894;16.714;2023-06-26T13:41:11;3.60;;;2.72;;
18174;SDS011;9212;50.894;16.714;2023-06-26T13:43:38;3.38;;;2.70;;
18174;SDS011;9212;50.894;16.714;2023-06-26T13:46:05;3.03;;;2.72;;
18174;SDS011;9212;50.894;16.714;2023-06-26T13:48:34;3.50;;;2.72;;
18174;SDS011;9212;50.894;16.714;2023-06-26T13:51:01;3.00;;;2.58;;
18174;SDS011;9212;50.894;16.714;2023-06-26T13:53:36;2.65;;;2.45;;
18174;SDS011;9212;50.894;16.714;2023-06-26T13:56:04;2.92;;;2.42;;
18174;SDS011;9212;50.894;16.714;2023-06-26T13:58:31;2.50;;;2.30;;
18174;SDS011;9212;50.894;16.714;2023-06-26T14:00:59;3.75;;;2.67;;
18174;SDS011;9212;50.894;16.714;2023-06-26T14:03:29;2.95;;;2.75;;
18174;SDS011;9212;50.894;16.714;2023-06-26T14:05:58;4.05;;;2.92;;
18174;SDS011;9212;50.894;16.714;2023-06-26T14:08:26;3.05;;;2.75;;
18174;SDS011;9212;50.894;16.714;2023-06-26T14:10:56;4.22;;;2.80;;
18174;SDS011;9212;50.894;16.714;2023-06-26T14:13:25;3.22;;;2.75;;
18174;SDS011;9212;50.894;16.714;2023-06-26T14:15:52;3.47;;;2.50;;
18174;SDS011;9212;50.894;16.714;2023-06-26T14:18:21;2.80;;;2.60;;
18174;SDS011;9212;50.894;16.714;2023-06-26T14:20:49;3.10;;;2.80;;
18174;SDS011;9212;50.894;16.714;2023-06-26T14:23:18;3.13;;;2.67;;
18174;SDS011;9212;50.894;16.714;2023-06-26T14:25:45;4.55;;;3.10;;
18174;SDS011;9212;50.894;16.714;2023-06-26T14:28:13;3.25;;;2.67;;
18174;SDS011;9212;50.894;16.714;2023-06-26T14:30:41;3.45;;;2.85;;
18174;SDS011;9212;50.894;16.714;2023-06-26T14:33:08;4.30;;;2.63;;
18174;SDS011;9212;50.894;16.714;2023-06-26T14:35:35;3.30;;;3.00;;
18174;SDS011;9212;50.894;16.714;2023-06-26T14:38:13;3.10;;;2.67;;
18174;SDS011;9212;50.894;16.714;2023-06-26T14:40:43;3.03;;;2.72;;
18174;SDS011;9212;50.894;16.714;2023-06-26T14:43:10;5.35;;;2.88;;
18174;SDS011;9212;50.894;16.714;2023-06-26T14:45:38;3.00;;;2.70;;
18174;SDS011;9212;50.894;16.714;2023-06-26T14:48:05;3.05;;;2.75;;
18174;SDS011;9212;50.894;16.714;2023-06-26T14:50:33;5.35;;;3.05;;
18174;SDS011;9212;50.894;16.714;2023-06-26T14:53:00;3.33;;;2.70;;
18174;SDS011;9212;50.894;16.714;2023-06-26T14:55:27;3.65;;;2.83;;